createdAt,value
2019-01-24T00:01:08.051Z,122.53
2019-01-24T00:03:36.541Z,129.20
2019-01-24T00:06:08.726Z,131.80
2019-01-24T00:08:37.617Z,137.83
2019-01-24T00:11:06.749Z,126.77
2019-01-24T00:13:37.858Z,148.77
2019-01-24T00:16:09.736Z,136.77
2019-01-24T00:18:38.728Z,121.87
2019-01-24T00:21:07.580Z,123.10
2019-01-24T00:23:38.335Z,117.43
2019-01-24T00:26:07.101Z,117.87
2019-01-24T00:28:35.916Z,126.90
2019-01-24T00:31:05.196Z,129.23
2019-01-24T00:33:34.105Z,123.77
2019-01-24T00:36:02.853Z,123.77
2019-01-24T00:38:31.970Z,109.83
2019-01-24T00:41:00.984Z,122.83
2019-01-24T00:43:30.694Z,130.07
2019-01-24T00:45:59.580Z,116.93
2019-01-24T00:51:06.680Z,116.93
2019-01-24T00:53:35.449Z,122.27
2019-01-24T00:56:05.470Z,106.43
2019-01-24T00:58:34.374Z,119.87
2019-01-24T01:01:03.475Z,118.37
2019-01-24T01:03:32.359Z,120.70
2019-01-24T01:06:01.466Z,127.20
2019-01-24T01:08:30.347Z,125.30
2019-01-24T01:11:00.875Z,123.87
2019-01-24T01:13:29.766Z,116.37
2019-01-24T01:15:58.656Z,131.70
2019-01-24T01:18:27.403Z,127.40
2019-01-24T01:20:56.229Z,120.27
2019-01-24T01:23:25.620Z,130.47
2019-01-24T01:25:54.911Z,135.87
2019-01-24T01:28:24.234Z,132.30
2019-01-24T01:30:56.645Z,139.80
2019-01-24T01:33:25.393Z,127.57
2019-01-24T01:35:54.285Z,135.77
2019-01-24T01:38:23.077Z,143.67
2019-01-24T01:40:55.037Z,142.23
2019-01-24T01:43:23.958Z,153.00
2019-01-24T01:45:53.379Z,156.70
2019-01-24T01:48:22.199Z,135.17
2019-01-24T01:50:51.144Z,135.30
2019-01-24T01:53:20.900Z,147.03
2019-01-24T01:55:49.689Z,146.83
2019-01-24T01:58:18.604Z,152.37
2019-01-24T02:00:47.492Z,136.67
2019-01-24T02:03:16.382Z,139.03
2019-01-24T02:05:45.374Z,131.00
2019-01-24T02:08:14.268Z,130.57
2019-01-24T02:10:43.142Z,132.43
2019-01-24T02:13:12.048Z,125.70
2019-01-24T02:15:40.942Z,132.03
2019-01-24T02:18:10.032Z,114.43
2019-01-24T02:20:38.926Z,131.23
2019-01-24T02:23:07.816Z,113.60
2019-01-24T02:25:37.137Z,113.77
2019-01-24T02:28:06.213Z,120.53
2019-01-24T02:30:37.253Z,105.53
2019-01-24T02:33:06.343Z,114.10
2019-01-24T02:35:35.060Z,110.07
2019-01-24T02:38:06.156Z,102.67
2019-01-24T02:40:34.937Z,118.97
2019-01-24T02:43:03.852Z,109.90
2019-01-24T02:45:32.749Z,104.63
2019-01-24T02:48:01.509Z,103.57
2019-01-24T02:50:30.319Z,106.40
2019-01-24T02:53:02.489Z,113.33
2019-01-24T02:55:32.179Z,100.70
2019-01-24T02:58:01.499Z,98.47
2019-01-24T03:00:30.386Z,94.80
2019-01-24T03:02:59.163Z,109.23
2019-01-24T03:05:28.041Z,93.23
2019-01-24T03:07:57.059Z,90.27
2019-01-24T03:10:25.820Z,87.70
2019-01-24T03:12:54.737Z,94.80
2019-01-24T03:15:23.627Z,97.97
2019-01-24T03:17:53.498Z,95.00
2019-01-24T03:20:22.436Z,93.73
2019-01-24T03:22:51.196Z,86.00
2019-01-24T03:25:20.119Z,84.17
2019-01-24T03:27:48.951Z,90.53
2019-01-24T03:30:23.322Z,85.20
2019-01-24T03:32:52.312Z,87.37
2019-01-24T03:35:23.578Z,85.37
2019-01-24T03:37:52.346Z,82.20
2019-01-24T03:40:21.687Z,83.03
2019-01-24T03:42:50.719Z,93.63
2019-01-24T03:45:19.730Z,92.07
2019-01-24T03:47:48.649Z,91.53
2019-01-24T03:50:19.166Z,85.63
2019-01-24T03:52:48.644Z,86.73
2019-01-24T03:55:19.397Z,93.13
2019-01-24T03:57:48.262Z,92.27
2019-01-24T04:00:22.194Z,90.53
2019-01-24T04:02:51.139Z,76.00
2019-01-24T04:05:20.277Z,83.67
2019-01-24T04:07:49.169Z,80.07
2019-01-24T04:10:22.386Z,85.23
2019-01-24T04:12:51.492Z,91.30
2019-01-24T04:15:22.392Z,90.77
2019-01-24T04:17:51.230Z,87.73
2019-01-24T04:20:20.050Z,80.57
2019-01-24T04:22:48.862Z,86.13
2019-01-24T04:25:17.958Z,79.27
2019-01-24T04:27:46.723Z,79.93
2019-01-24T04:30:21.642Z,90.67
2019-01-24T04:32:50.629Z,100.17
2019-01-24T04:35:20.294Z,80.93
2019-01-24T04:37:49.475Z,83.43
2019-01-24T04:40:20.008Z,73.83
2019-01-24T04:42:49.109Z,80.07
2019-01-24T04:45:18.623Z,80.77
2019-01-24T04:47:47.471Z,80.63
2019-01-24T04:50:23.737Z,86.23
2019-01-24T04:52:53.468Z,91.27
2019-01-24T04:55:22.359Z,85.93
2019-01-24T04:57:58.884Z,82.37
2019-01-24T05:00:32.835Z,79.47
2019-01-24T05:03:01.655Z,85.60
2019-01-24T05:05:30.420Z,86.70
2019-01-24T05:07:59.175Z,68.77
2019-01-24T05:10:28.061Z,80.67
2019-01-24T05:12:56.879Z,80.90
2019-01-24T05:15:25.945Z,86.70
2019-01-24T05:17:54.868Z,80.43
2019-01-24T05:20:23.478Z,74.03
2019-01-24T05:22:52.439Z,73.47
2019-01-24T05:25:24.332Z,71.97
2019-01-24T05:27:53.292Z,80.57
2019-01-24T05:30:24.048Z,75.73
2019-01-24T05:32:52.920Z,76.70
2019-01-24T05:35:21.823Z,75.13
2019-01-24T05:37:50.707Z,75.63
2019-01-24T05:40:26.765Z,67.43
2019-01-24T05:42:55.654Z,66.47
2019-01-24T05:45:24.816Z,74.70
2019-01-24T05:47:53.841Z,66.97
2019-01-24T05:50:22.577Z,67.43
2019-01-24T05:52:51.420Z,67.20
2019-01-24T05:55:20.308Z,64.47
2019-01-24T05:57:48.985Z,62.63
2019-01-24T06:00:24.448Z,73.40
2019-01-24T06:02:54.966Z,66.53
2019-01-24T06:05:23.735Z,76.87
2019-01-24T06:07:52.468Z,75.13
2019-01-24T06:10:24.033Z,75.10
2019-01-24T06:12:53.198Z,87.67
2019-01-24T06:15:25.359Z,75.60
2019-01-24T06:17:54.250Z,56.83
2019-01-24T06:20:22.933Z,77.60
2019-01-24T06:22:51.700Z,64.47
2019-01-24T06:25:20.473Z,74.80
2019-01-24T06:27:49.274Z,69.57
2019-01-24T06:30:20.550Z,68.50
2019-01-24T06:32:49.462Z,74.40
2019-01-24T06:35:18.640Z,77.03
2019-01-24T06:37:47.731Z,70.37
2019-01-24T06:40:17.433Z,63.73
2019-01-24T06:42:47.860Z,74.43
2019-01-24T06:45:19.931Z,71.57
2019-01-24T06:47:48.969Z,70.13
2019-01-24T06:50:19.019Z,68.47
2019-01-24T06:52:47.807Z,63.83
2019-01-24T06:55:22.125Z,58.47
2019-01-24T06:57:50.936Z,69.57
2019-01-24T07:00:20.822Z,65.83
2019-01-24T07:02:49.637Z,81.93
2019-01-24T07:05:18.615Z,73.13
2019-01-24T07:07:47.623Z,70.43
2019-01-24T07:10:18.773Z,67.40
2019-01-24T07:12:49.195Z,58.87
2019-01-24T07:15:20.621Z,69.70
2019-01-24T07:17:49.438Z,67.80
2019-01-24T07:20:20.051Z,64.23
2019-01-24T07:22:49.259Z,62.50
2019-01-24T07:25:24.709Z,59.17
2019-01-24T07:27:56.257Z,69.90
2019-01-24T07:30:24.982Z,56.17
2019-01-24T07:32:54.858Z,59.07
2019-01-24T07:35:23.750Z,70.27
2019-01-24T07:37:52.641Z,68.10
2019-01-24T07:40:21.741Z,69.90
2019-01-24T07:42:52.038Z,78.10
2019-01-24T07:45:32.826Z,69.67
2019-01-24T07:48:03.159Z,72.87
2019-01-24T07:50:32.247Z,66.40
2019-01-24T07:53:01.069Z,64.80
2019-01-24T07:55:31.341Z,73.00
2019-01-24T07:58:00.136Z,86.10
2019-01-24T08:00:30.191Z,77.97
2019-01-24T08:02:59.145Z,69.23
2019-01-24T08:05:29.996Z,67.50
2019-01-24T08:07:58.793Z,69.40
2019-01-24T08:10:33.924Z,69.80
2019-01-24T08:13:03.254Z,63.40
2019-01-24T08:15:32.049Z,67.37
2019-01-24T08:18:00.708Z,76.03
2019-01-24T08:20:29.620Z,87.87
2019-01-24T08:23:00.584Z,74.40
2019-01-24T08:25:29.501Z,73.47
2019-01-24T08:27:58.409Z,71.30
2019-01-24T08:30:30.167Z,72.63
2019-01-24T08:32:58.967Z,72.67
2019-01-24T08:35:29.627Z,72.10
2019-01-24T08:38:00.932Z,73.03
2019-01-24T08:40:30.216Z,59.60
2019-01-24T08:42:59.328Z,64.83
2019-01-24T08:45:29.837Z,68.80
2019-01-24T08:47:59.016Z,65.37
2019-01-24T08:50:32.686Z,76.77
2019-01-24T08:53:01.953Z,65.23
2019-01-24T08:55:36.172Z,68.67
2019-01-24T08:58:05.902Z,75.97
2019-01-24T09:00:34.647Z,64.10
2019-01-24T09:03:03.559Z,73.10
2019-01-24T09:05:36.786Z,65.10
2019-01-24T09:08:05.615Z,67.17
2019-01-24T09:10:36.896Z,67.13
2019-01-24T09:13:06.336Z,63.33
2019-01-24T09:15:35.143Z,65.33
2019-01-24T09:18:06.020Z,67.57
2019-01-24T09:20:37.814Z,63.00
2019-01-24T09:23:06.664Z,63.93
2019-01-24T09:25:42.729Z,62.07
2019-01-24T09:28:15.064Z,69.53
2019-01-24T09:30:42.337Z,72.97
2019-01-24T09:33:11.240Z,71.07
2019-01-24T09:35:40.135Z,62.87
2019-01-24T09:38:11.235Z,67.63
2019-01-24T09:40:39.932Z,65.00
2019-01-24T09:43:09.111Z,76.23
2019-01-24T09:45:37.837Z,75.77
2019-01-24T09:48:07.226Z,65.17
2019-01-24T09:50:37.762Z,70.90
2019-01-24T09:53:06.542Z,72.80
2019-01-24T09:55:35.319Z,57.23
2019-01-24T09:58:04.447Z,67.37
2019-01-24T10:00:36.793Z,66.87
2019-01-24T10:03:08.264Z,75.33
2019-01-24T10:05:37.985Z,77.07
2019-01-24T10:08:07.795Z,70.83
2019-01-24T10:10:36.681Z,65.43
2019-01-24T10:13:07.687Z,63.77
2019-01-24T10:15:36.494Z,82.07
2019-01-24T10:18:05.386Z,65.60
2019-01-24T10:20:34.806Z,62.67
2019-01-24T10:23:03.903Z,66.57
2019-01-24T10:25:35.062Z,70.60
2019-01-24T10:28:04.016Z,62.87
2019-01-24T10:30:33.118Z,69.67
2019-01-24T10:33:05.910Z,68.63
2019-01-24T10:35:37.874Z,75.27
2019-01-24T10:38:06.592Z,75.07
2019-01-24T10:40:35.356Z,65.80
2019-01-24T10:43:04.860Z,62.93
2019-01-24T10:45:33.724Z,76.10
2019-01-24T10:48:02.532Z,67.97
2019-01-24T10:50:31.236Z,58.27
2019-01-24T10:53:00.232Z,67.20
2019-01-24T10:55:32.080Z,62.47
2019-01-24T10:58:01.282Z,70.83
2019-01-24T11:00:41.631Z,61.57
2019-01-24T11:03:22.868Z,61.63
2019-01-24T11:05:51.647Z,65.87
2019-01-24T11:08:20.722Z,68.27
2019-01-24T11:10:49.721Z,65.23
2019-01-24T11:13:19.737Z,66.40
2019-01-24T11:15:50.632Z,73.43
2019-01-24T11:18:19.532Z,61.40
2019-01-24T11:20:48.527Z,63.30
2019-01-24T11:23:18.316Z,56.97
2019-01-24T11:25:47.344Z,69.23
2019-01-24T11:28:16.104Z,70.93
2019-01-24T11:30:44.906Z,62.67
2019-01-24T11:33:13.682Z,80.57
2019-01-24T11:35:45.356Z,67.67
2019-01-24T11:38:15.839Z,59.13
2019-01-24T11:40:44.768Z,70.10
2019-01-24T11:43:16.329Z,68.63
2019-01-24T11:45:51.131Z,72.90
2019-01-24T11:48:20.350Z,59.80
2019-01-24T11:50:55.457Z,68.40
2019-01-24T11:53:28.619Z,67.80
2019-01-24T11:55:57.485Z,68.97
2019-01-24T11:58:28.951Z,71.27
2019-01-24T12:00:58.023Z,69.83
2019-01-24T12:03:27.022Z,65.90
2019-01-24T12:05:58.947Z,65.57
2019-01-24T12:08:27.447Z,67.00
2019-01-24T12:10:56.351Z,67.60
2019-01-24T12:13:28.887Z,70.90
2019-01-24T12:16:10.980Z,65.43
2019-01-24T12:18:40.725Z,69.40
2019-01-24T12:21:14.389Z,72.40
2019-01-24T12:23:43.098Z,67.10
2019-01-24T12:26:11.907Z,63.23
2019-01-24T12:28:40.687Z,67.23
2019-01-24T12:31:09.576Z,72.97
2019-01-24T12:33:38.623Z,86.20
2019-01-24T12:36:07.474Z,76.90
2019-01-24T12:38:36.788Z,77.90
2019-01-24T12:41:08.653Z,68.43
2019-01-24T12:43:40.870Z,74.30
2019-01-24T12:46:12.252Z,75.73
2019-01-24T12:48:40.850Z,77.83
2019-01-24T12:51:09.712Z,76.90
2019-01-24T12:53:38.622Z,71.93
2019-01-24T12:56:07.803Z,79.07
2019-01-24T12:58:36.591Z,70.33
2019-01-24T13:01:05.413Z,73.80
2019-01-24T13:03:35.655Z,65.70
2019-01-24T13:06:04.712Z,69.97
2019-01-24T13:08:36.625Z,67.50
2019-01-24T13:11:05.403Z,72.50
2019-01-24T13:13:47.808Z,75.87
2019-01-24T13:16:20.822Z,68.57
2019-01-24T13:18:58.882Z,76.43
2019-01-24T13:21:27.670Z,71.27
2019-01-24T13:23:56.484Z,71.20
2019-01-24T13:26:25.261Z,63.87
2019-01-24T13:28:54.146Z,72.73
2019-01-24T13:31:22.935Z,70.30
2019-01-24T13:33:52.621Z,69.23
2019-01-24T13:36:21.462Z,80.03
2019-01-24T13:38:50.443Z,74.57
2019-01-24T13:41:21.217Z,71.37
2019-01-24T13:43:51.726Z,71.47
2019-01-24T13:46:24.483Z,71.17
2019-01-24T13:48:53.823Z,72.43
2019-01-24T13:51:22.857Z,69.80
2019-01-24T13:53:57.007Z,77.80
2019-01-24T13:56:25.808Z,75.07
2019-01-24T13:58:54.595Z,66.87
2019-01-24T14:01:28.566Z,70.07
2019-01-24T14:03:57.645Z,80.63
2019-01-24T14:06:26.421Z,70.07
2019-01-24T14:08:59.393Z,79.33
2019-01-24T14:11:28.308Z,82.23
2019-01-24T14:13:57.682Z,79.57
2019-01-24T14:16:27.390Z,68.10
2019-01-24T14:18:56.171Z,77.03
2019-01-24T14:21:25.318Z,75.43
2019-01-24T14:23:54.186Z,69.90
2019-01-24T14:26:22.946Z,78.53
2019-01-24T14:28:54.626Z,64.83
2019-01-24T14:31:25.771Z,79.10
2019-01-24T14:33:54.454Z,82.77
2019-01-24T14:36:25.461Z,80.00
2019-01-24T14:38:53.960Z,74.47
2019-01-24T14:41:23.875Z,70.20
2019-01-24T14:43:52.882Z,70.37
2019-01-24T14:46:21.702Z,73.17
2019-01-24T14:48:50.473Z,75.70
2019-01-24T14:51:19.275Z,76.63
2019-01-24T14:53:49.556Z,75.00
2019-01-24T14:56:18.246Z,75.27
2019-01-24T14:58:47.042Z,69.10
2019-01-24T15:01:17.006Z,74.30
2019-01-24T15:03:51.280Z,74.63
2019-01-24T15:06:20.175Z,78.47
2019-01-24T15:08:49.265Z,76.43
2019-01-24T15:11:37.508Z,75.47
2019-01-24T15:14:06.290Z,74.27
2019-01-24T15:16:35.288Z,73.23
2019-01-24T15:19:04.135Z,79.33
2019-01-24T15:21:36.022Z,72.70
2019-01-24T15:24:06.043Z,76.33
2019-01-24T15:26:35.463Z,70.47
2019-01-24T15:29:04.444Z,68.63
2019-01-24T15:31:33.146Z,79.63
2019-01-24T15:34:05.943Z,79.17
2019-01-24T15:36:32.480Z,80.37
2019-01-24T15:39:02.829Z,85.40
2019-01-24T15:41:31.631Z,83.43
2019-01-24T15:44:05.679Z,85.60
2019-01-24T15:46:37.829Z,85.87
2019-01-24T15:49:12.129Z,86.47
2019-01-24T15:51:40.655Z,93.27
2019-01-24T15:54:09.436Z,103.63
2019-01-24T15:56:38.214Z,98.67
2019-01-24T15:59:08.741Z,111.27
2019-01-24T16:01:37.651Z,82.30
2019-01-24T16:04:06.939Z,80.83
2019-01-24T16:12:21.645Z,91.03
2019-01-24T16:14:54.911Z,93.83
2019-01-24T16:17:25.474Z,85.10
2019-01-24T16:19:55.289Z,92.57
2019-01-24T16:22:28.447Z,88.63
2019-01-24T16:25:00.176Z,98.50
2019-01-24T16:27:30.836Z,78.67
2019-01-24T16:29:59.939Z,85.67
2019-01-24T16:32:30.033Z,92.83
2019-01-24T16:35:01.543Z,86.00
2019-01-24T16:37:32.257Z,81.20
2019-01-24T16:40:05.626Z,94.83
2019-01-24T16:42:37.532Z,87.50
2019-01-24T16:45:10.134Z,90.97
2019-01-24T16:47:39.169Z,78.53
2019-01-24T16:50:10.748Z,82.70
2019-01-24T16:52:41.574Z,82.23
2019-01-24T16:55:13.613Z,80.00
2019-01-24T16:57:51.688Z,86.93
2019-01-24T17:00:41.242Z,91.87
2019-01-24T17:03:13.468Z,79.67
2019-01-24T17:05:42.342Z,83.50
2019-01-24T17:08:16.621Z,87.47
2019-01-24T17:10:47.938Z,85.50
2019-01-24T17:13:17.034Z,82.93
2019-01-24T17:15:47.234Z,78.60
2019-01-24T17:18:24.618Z,90.43
2019-01-24T17:20:53.742Z,82.73
2019-01-24T17:23:22.493Z,86.87
2019-01-24T17:25:55.928Z,84.37
2019-01-24T17:28:24.914Z,91.37
2019-01-24T17:30:53.659Z,81.47
2019-01-24T17:33:29.805Z,86.00
2019-01-24T17:35:58.759Z,72.30
2019-01-24T17:38:27.760Z,87.07
2019-01-24T17:40:56.522Z,87.20
2019-01-24T17:43:27.885Z,87.23
2019-01-24T17:45:56.493Z,78.80
2019-01-24T17:48:26.707Z,91.67
2019-01-24T17:50:55.437Z,88.93
2019-01-24T17:53:24.271Z,89.47
2019-01-24T17:55:55.319Z,82.20
2019-01-24T17:58:27.578Z,92.63
2019-01-24T18:00:57.908Z,84.17
2019-01-24T18:03:27.004Z,97.60
2019-01-24T18:05:55.765Z,88.67
2019-01-24T18:08:31.010Z,91.90
2019-01-24T18:10:56.539Z,90.87
2019-01-24T18:13:28.329Z,84.53
2019-01-24T18:15:57.397Z,90.20
2019-01-24T18:18:26.465Z,92.27
2019-01-24T18:20:56.671Z,85.47
2019-01-24T18:23:25.754Z,76.97
2019-01-24T18:26:02.171Z,87.43
2019-01-24T18:28:32.220Z,88.90
2019-01-24T18:31:00.956Z,80.30
2019-01-24T18:33:32.422Z,87.07
2019-01-24T18:36:02.798Z,94.10
2019-01-24T18:38:38.436Z,92.97
2019-01-24T18:41:08.708Z,95.80
2019-01-24T18:43:36.541Z,95.03
2019-01-24T18:46:06.923Z,96.17
2019-01-24T18:48:35.706Z,93.93
2019-01-24T18:51:04.797Z,105.20
2019-01-24T18:53:34.504Z,105.80
2019-01-24T18:56:03.600Z,98.57
2019-01-24T18:58:35.009Z,98.70
2019-01-24T19:01:07.677Z,101.60
2019-01-24T19:03:56.410Z,93.30
2019-01-24T19:06:27.999Z,96.57
2019-01-24T19:08:56.729Z,90.43
2019-01-24T19:11:25.655Z,96.97
2019-01-24T19:14:15.238Z,102.53
2019-01-24T19:16:43.965Z,89.73
2019-01-24T19:19:16.310Z,94.80
2019-01-24T19:21:49.852Z,88.90
2019-01-24T19:24:18.740Z,90.40
2019-01-24T19:26:50.302Z,81.17
2019-01-24T19:29:32.116Z,93.13
2019-01-24T19:31:54.412Z,84.87
2019-01-24T19:34:25.930Z,86.07
2019-01-24T19:36:57.569Z,85.07
2019-01-24T19:39:26.246Z,86.73
2019-01-24T19:41:59.837Z,93.30
2019-01-24T19:44:29.152Z,91.07
2019-01-24T19:46:59.281Z,81.90
2019-01-24T19:49:28.167Z,91.43
2019-01-24T19:51:57.176Z,89.40
2019-01-24T19:54:27.012Z,91.53
2019-01-24T19:57:01.707Z,88.60
2019-01-24T19:59:36.695Z,98.67
2019-01-24T20:02:08.600Z,90.00
2019-01-24T20:04:37.670Z,95.93
2019-01-24T20:07:08.005Z,96.37
2019-01-24T20:09:38.799Z,87.67
2019-01-24T20:12:30.374Z,94.20
2019-01-24T20:14:59.809Z,89.00
2019-01-24T20:17:28.934Z,83.77
2019-01-24T20:20:02.737Z,89.97
2019-01-24T20:22:33.670Z,87.63
2019-01-24T20:25:09.960Z,95.00
2019-01-24T20:27:39.559Z,96.00
2019-01-24T20:30:16.430Z,86.97
2019-01-24T20:32:46.385Z,81.97
2019-01-24T20:35:30.265Z,94.30
2019-01-24T20:37:59.378Z,95.93
2019-01-24T20:40:28.477Z,93.07
2019-01-24T20:42:57.365Z,98.87
2019-01-24T20:45:29.562Z,96.23
2019-01-24T20:48:03.870Z,97.50
2019-01-24T20:50:32.457Z,88.77
2019-01-24T20:53:06.124Z,100.47
2019-01-24T20:58:15.713Z,96.40
2019-01-24T21:00:51.232Z,91.67
2019-01-24T21:03:20.219Z,88.10
2019-01-24T21:05:48.997Z,95.53
2019-01-24T21:08:18.941Z,90.50
2019-01-24T21:10:50.288Z,101.77
2019-01-24T21:13:19.585Z,91.63
2019-01-24T21:15:51.559Z,100.70
2019-01-24T21:18:20.648Z,101.40
2019-01-24T21:20:52.510Z,99.00
2019-01-24T21:23:27.336Z,99.10
2019-01-24T21:25:57.849Z,102.43
2019-01-24T21:28:27.578Z,101.77
2019-01-24T21:30:56.555Z,96.87
2019-01-24T21:33:29.656Z,92.00
2019-01-24T21:35:58.442Z,95.13
2019-01-24T21:38:27.440Z,105.03
2019-01-24T21:40:56.324Z,94.03
2019-01-24T21:43:28.904Z,94.80
2019-01-24T21:45:57.792Z,89.27
2019-01-24T21:48:30.760Z,95.20
2019-01-24T21:50:59.669Z,91.13
2019-01-24T21:53:28.640Z,87.33
2019-01-24T21:55:59.431Z,88.37
2019-01-24T21:58:30.014Z,86.63
2019-01-24T22:00:59.128Z,85.33
2019-01-24T22:03:27.944Z,92.07
2019-01-24T22:06:07.009Z,97.07
2019-01-24T22:08:36.145Z,88.20
2019-01-24T22:11:06.388Z,83.23
2019-01-24T22:13:35.768Z,87.93
2019-01-24T22:16:06.091Z,87.60
2019-01-24T22:18:36.513Z,88.33
2019-01-24T22:21:06.330Z,89.00
2019-01-24T22:23:35.419Z,85.37
2019-01-24T22:26:12.157Z,84.97
2019-01-24T22:28:40.779Z,85.37
2019-01-24T22:31:10.885Z,77.10
2019-01-24T22:33:39.585Z,86.03
2019-01-24T22:36:08.694Z,93.20
2019-01-24T22:38:39.825Z,84.73
2019-01-24T22:41:08.695Z,83.13
2019-01-24T22:43:37.609Z,92.30
2019-01-24T22:46:09.723Z,92.87
2019-01-24T22:48:40.820Z,87.03
2019-01-24T22:51:11.827Z,88.70
2019-01-24T22:53:40.746Z,89.07
2019-01-24T22:56:09.533Z,86.87
2019-01-24T22:58:38.625Z,82.07
2019-01-24T23:01:19.068Z,86.67
2019-01-24T23:03:49.724Z,95.30
2019-01-24T23:06:19.740Z,87.03
2019-01-24T23:08:48.721Z,82.27
2019-01-24T23:11:18.831Z,92.17
2019-01-24T23:13:48.435Z,88.63
2019-01-24T23:16:22.066Z,84.17
2019-01-24T23:18:53.878Z,83.00
2019-01-24T23:21:26.865Z,78.43
2019-01-24T23:23:55.474Z,85.47
2019-01-24T23:26:25.749Z,85.93
2019-01-24T23:28:56.008Z,88.57
2019-01-24T23:31:26.290Z,82.23
2019-01-24T23:33:55.052Z,92.83
2019-01-24T23:36:23.948Z,93.47
2019-01-24T23:39:15.641Z,83.77
2019-01-24T23:41:44.670Z,80.43
2019-01-24T23:44:15.090Z,82.70
2019-01-24T23:46:48.296Z,86.67
2019-01-24T23:49:17.166Z,86.37
2019-01-24T23:51:46.066Z,92.23
2019-01-24T23:54:15.050Z,88.07
2019-01-24T23:56:43.940Z,90.37
2019-01-24T23:59:13.789Z,93.60
